Terminal Aerodrome Forecast
Issued by NWS Omaha/Valley, NE

Home | Current Version | Previous Version | Text Only | Print | Product List | Glossary On
Versions: 1 2 3 4 5 6 7 8 9 10 11 12 13 14 15 16 17 18 19 20 21 22 23 24 25
000
FTUS43 KOAX 242320
TAFLNK
TAF
KLNK 242320Z 2500/2524 27011KT P6SM BKN110
     FM250200 29013KT P6SM BKN050
     FM250400 32017G28KT P6SM OVC035
     FM251000 33023G33KT P6SM OVC025
     FM251200 33027G35KT 4SM -SHRA OVC015
     FM251600 35026G34KT P6SM OVC015
     FM252200 36014KT P6SM BKN050=

USA.gov is the U.S. government's official web portal to all federal, state and local government web resources and services.